Time;durP1;ratioP1;P1;durP2;ratioP2;P2;SDS_P1;SDS_P2;PMS_P1;PMS_P2;Temp;Humidity;BMP_temperature;BMP_pressure;BME280_temperature;BME280_humidity;BME280_pressure;Samples;Min_cycle;Max_cycle;Signal;HPM_P1;HPM_P2
2022/10/14 04:20:37;;;;;;;69.62;31.52;;;;;;;7.04;100.00;100703.44;5557705;32;151644;-88
2022/10/14 04:23:41;;;;;;;67.00;31.65;;;;;;;7.00;100.00;100717.66;5544343;32;34063;-88
2022/10/14 04:26:44;;;;;;;57.55;30.08;;;;;;;7.01;100.00;100707.03;5542712;32;33033;-88
2022/10/14 04:29:47;;;;;;;60.00;29.95;;;;;;;7.04;100.00;100706.09;5544258;32;33908;-88
2022/10/14 04:32:50;;;;;;;56.65;29.67;;;;;;;7.07;100.00;100710.41;5546574;32;34707;-88
2022/10/14 04:36:00;;;;;;;47.00;26.50;;;;;;;7.11;100.00;100710.28;5544804;32;33742;-88
2022/10/14 04:39:04;;;;;;;50.72;26.08;;;;;;;7.15;100.00;100706.62;5555046;32;34922;-88
2022/10/14 04:42:08;;;;;;;45.85;26.12;;;;;;;7.14;100.00;100709.31;5548090;32;35103;-88
2022/10/14 04:45:11;;;;;;;46.10;25.80;;;;;;;7.18;100.00;100712.75;5542040;32;33935;-88
2022/10/14 04:48:19;;;;;;;44.75;24.67;;;;;;;7.22;100.00;100703.81;5542121;32;34027;-88
2022/10/14 04:51:21;;;;;;;44.40;24.55;;;;;;;7.25;100.00;100707.22;5542027;32;34625;-86
2022/10/14 04:54:25;;;;;;;44.40;25.48;;;;;;;7.27;100.00;100709.81;5541050;32;32372;-86
2022/10/14 04:57:31;;;;;;;38.33;23.55;;;;;;;7.33;100.00;100717.53;5542646;32;34531;-86
2022/10/14 05:00:35;;;;;;;42.50;24.10;;;;;;;7.43;100.00;100717.28;5543059;32;33704;-86
2022/10/14 05:03:38;;;;;;;37.13;23.25;;;;;;;7.62;100.00;100722.81;5544764;32;34875;-85
2022/10/14 05:06:41;;;;;;;41.33;23.02;;;;;;;7.63;100.00;100719.25;5541180;32;32393;-86
2022/10/14 05:09:45;;;;;;;37.58;22.75;;;;;;;7.68;100.00;100717.34;5543149;32;34533;-86
2022/10/14 05:12:53;;;;;;;38.67;22.42;;;;;;;7.64;100.00;100721.87;5542336;32;34495;-86
2022/10/14 05:15:56;;;;;;;37.13;22.33;;;;;;;7.71;100.00;100716.38;5542671;32;34044;-85
2022/10/14 05:18:59;;;;;;;37.67;22.05;;;;;;;7.75;100.00;100716.22;5542317;32;34210;-86
2022/10/14 05:22:02;;;;;;;35.95;22.65;;;;;;;7.81;100.00;100708.09;5542952;32;33854;-86
2022/10/14 05:25:06;;;;;;;38.65;23.17;;;;;;;7.86;100.00;100715.91;5542463;32;34074;-86
2022/10/14 05:28:08;;;;;;;38.38;21.52;;;;;;;7.85;100.00;100716.78;5542028;32;35124;-85
2022/10/14 05:31:12;;;;;;;36.40;22.10;;;;;;;7.81;100.00;100720.47;5534258;32;33362;-86
2022/10/14 05:34:17;;;;;;;39.30;23.45;;;;;;;7.84;100.00;100719.50;5529082;32;34129;-86
2022/10/14 07:52:29;;;;;;;22.87;17.35;;;;;;;26.53;43.84;100764.44;1055480;27;20397;-88
2022/10/14 07:55:33;;;;;;;26.27;16.85;;;;;;;27.64;40.22;100750.09;5474981;27;31134;-88
2022/10/14 07:58:40;;;;;;;27.42;17.30;;;;;;;27.94;38.41;100749.37;5461899;27;35215;-88
2022/10/14 08:35:23;;;;;;;31.87;18.15;;;;;;;25.91;41.52;100722.28;5420109;32;32381;-90
2022/10/14 08:38:27;;;;;;;24.42;17.67;;;;;;;21.81;50.44;100717.84;5427404;32;33841;-90
2022/10/14 08:41:36;;;;;;;29.17;18.40;;;;;;;20.58;55.15;100714.31;5432847;32;33779;-89
2022/10/14 08:44:56;;;;;;;27.70;17.08;;;;;;;20.99;54.38;100715.25;5420878;32;32751;-89
2022/10/14 08:48:07;;;;;;;32.45;16.50;;;;;;;20.56;54.39;100710.88;5415662;32;33800;-88
2022/10/14 08:51:13;;;;;;;22.33;15.88;;;;;;;20.46;55.75;100708.13;5431900;32;35027;-89
2022/10/14 08:54:26;;;;;;;23.95;16.05;;;;;;;19.72;58.91;100716.06;5416523;32;33838;-89
2022/10/14 08:57:48;;;;;;;24.15;16.12;;;;;;;18.51;62.05;100721.16;5402593;32;32935;-90
2022/10/14 09:00:53;;;;;;;24.75;16.35;;;;;;;18.12;65.36;100721.47;5415191;32;33985;-88
2022/10/14 09:03:58;;;;;;;20.88;14.98;;;;;;;18.44;64.80;100718.13;5415535;32;33841;-90
2022/10/14 09:07:01;;;;;;;26.85;17.12;;;;;;;18.58;61.47;100719.75;5456873;27;35046;-90
2022/10/14 09:10:13;;;;;;;24.25;16.60;;;;;;;18.28;62.50;100723.81;5424290;32;34670;-90
2022/10/14 09:13:17;;;;;;;25.27;16.77;;;;;;;18.37;62.34;100726.75;5407323;32;32503;-90
2022/10/14 09:16:31;;;;;;;27.27;16.50;;;;;;;18.39;63.31;100724.81;5476467;27;33872;-92
2022/10/14 09:27:21;;;;;;;29.10;18.65;;;;;;;18.93;62.13;100717.91;778579;27;20409;-89
2022/10/14 09:30:29;;;;;;;32.45;18.98;;;;;;;19.03;61.44;100710.00;5454025;27;30818;-89
2022/10/14 09:33:33;;;;;;;28.62;19.37;;;;;;;18.78;61.37;100708.37;5447850;27;33944;-89
2022/10/14 09:36:43;;;;;;;28.95;19.00;;;;;;;19.03;61.62;100712.69;5424992;32;33429;-89
2022/10/14 09:50:58;;;;;;;25.90;17.60;;;;;;;19.75;60.30;100707.75;4835425;30;20143;-90
2022/10/14 09:54:03;;;;;;;29.30;17.52;;;;;;;20.13;59.28;100716.31;5495828;27;33256;-89
2022/10/14 09:57:07;;;;;;;24.23;16.20;;;;;;;20.84;56.83;100714.75;5415374;32;33972;-89
2022/10/14 10:00:27;;;;;;;28.83;18.25;;;;;;;21.00;56.90;100708.00;5438472;27;34772;-89
2022/10/14 10:03:34;;;;;;;24.90;18.35;;;;;;;21.29;55.10;100707.22;5462626;27;33889;-91
2022/10/14 10:06:51;;;;;;;26.62;18.23;;;;;;;20.71;59.01;100708.69;5432582;27;33084;-89
2022/10/14 10:10:19;;;;;;;27.13;16.65;;;;;;;21.58;55.96;100702.88;5408133;32;32862;-90
2022/10/14 10:13:30;;;;;;;24.60;15.95;;;;;;;22.21;53.53;100710.56;5406780;32;34204;-90
2022/10/14 10:16:37;;;;;;;24.63;16.70;;;;;;;22.51;52.92;100702.38;5413013;32;33606;-88
2022/10/14 10:19:50;;;;;;;26.73;16.83;;;;;;;22.06;52.67;100706.56;5410362;32;33396;-90
2022/10/14 10:22:55;;;;;;;23.20;15.75;;;;;;;21.99;55.13;100700.91;5409665;32;33849;-90
2022/10/14 10:26:17;;;;;;;22.02;16.10;;;;;;;22.63;54.33;100694.97;5400165;32;33424;-89
2022/10/14 10:48:56;;;;;;;22.50;15.93;;;;;;;23.51;49.50;100668.44;1059234;27;20393;-88
2022/10/14 10:52:12;;;;;;;27.62;16.58;;;;;;;23.70;50.01;100670.16;5397641;32;32256;-90
2022/10/14 10:55:53;;;;;;;22.02;15.80;;;;;;;22.52;50.91;100665.44;5385271;32;32946;-89
2022/10/14 10:59:02;;;;;;;19.92;14.10;;;;;;;24.14;46.77;100658.50;5391949;33;34187;-90
2022/10/14 11:02:48;;;;;;;21.37;15.30;;;;;;;25.55;43.99;100653.66;5397370;33;33893;-90
2022/10/14 13:12:20;;;;;;;21.30;16.55;;;;;;;20.93;56.26;100566.63;5401181;33;32511;-89
2022/10/14 13:15:34;;;;;;;22.87;16.35;;;;;;;21.00;54.66;100560.53;5401354;33;33782;-90
2022/10/14 13:29:54;;;;;;;;;;;;;;;20.35;59.30;100552.00;5357864;28;31535;-91
2022/10/14 13:33:14;;;;;;;26.05;17.92;;;;;;;20.29;58.24;100553.38;5430833;27;34261;-91
2022/10/14 13:36:28;;;;;;;23.10;17.33;;;;;;;20.26;57.75;100550.97;5374095;33;33516;-92
2022/10/14 13:51:08;;;;;;;24.25;18.90;;;;;;;19.78;59.88;100550.53;5197521;31;20131;-90
2022/10/14 13:54:31;;;;;;;25.05;19.20;;;;;;;19.70;59.73;100547.66;5349243;33;33647;-87
2022/10/14 13:57:34;;;;;;;29.92;18.92;;;;;;;19.82;59.32;100543.91;5365139;32;34115;-90
2022/10/14 14:13:02;;;;;;;29.85;20.52;;;;;;;19.92;60.50;100533.19;899518;27;20436;-91
